sensor_id;sensor_type;location;lat;lon;timestamp;P1;durP1;ratioP1;P2;durP2;ratioP2
37781;SDS011;23621;50.878;4.584;2023-07-24T00:01:09;9.38;;;4.68;;
37781;SDS011;23621;50.878;4.584;2023-07-24T00:03:56;8.30;;;4.53;;
37781;SDS011;23621;50.878;4.584;2023-07-24T00:06:45;9.93;;;4.85;;
37781;SDS011;23621;50.878;4.584;2023-07-24T00:09:32;6.57;;;4.30;;
37781;SDS011;23621;50.878;4.584;2023-07-24T00:12:19;7.50;;;4.32;;
37781;SDS011;23621;50.878;4.584;2023-07-24T00:15:07;9.30;;;5.35;;
37781;SDS011;23621;50.878;4.584;2023-07-24T00:17:54;8.25;;;4.70;;
37781;SDS011;23621;50.878;4.584;2023-07-24T00:20:41;9.27;;;4.75;;
37781;SDS011;23621;50.878;4.584;2023-07-24T00:23:28;9.05;;;5.10;;
37781;SDS011;23621;50.878;4.584;2023-07-24T00:26:16;9.48;;;4.70;;
37781;SDS011;23621;50.878;4.584;2023-07-24T00:29:03;7.18;;;4.40;;
37781;SDS011;23621;50.878;4.584;2023-07-24T00:31:50;7.18;;;4.75;;
37781;SDS011;23621;50.878;4.584;2023-07-24T00:34:37;8.82;;;5.50;;
37781;SDS011;23621;50.878;4.584;2023-07-24T00:37:24;7.18;;;4.70;;
37781;SDS011;23621;50.878;4.584;2023-07-24T00:40:12;11.20;;;5.70;;
37781;SDS011;23621;50.878;4.584;2023-07-24T00:42:59;8.55;;;5.10;;
37781;SDS011;23621;50.878;4.584;2023-07-24T00:45:46;7.47;;;4.90;;
37781;SDS011;23621;50.878;4.584;2023-07-24T00:48:34;8.15;;;5.00;;
37781;SDS011;23621;50.878;4.584;2023-07-24T00:51:21;13.30;;;6.20;;
37781;SDS011;23621;50.878;4.584;2023-07-24T00:54:09;9.93;;;5.00;;
37781;SDS011;23621;50.878;4.584;2023-07-24T00:56:57;6.38;;;5.30;;
37781;SDS011;23621;50.878;4.584;2023-07-24T00:59:45;8.55;;;5.22;;
37781;SDS011;23621;50.878;4.584;2023-07-24T01:02:32;7.30;;;4.78;;
37781;SDS011;23621;50.878;4.584;2023-07-24T01:05:19;9.30;;;5.47;;
37781;SDS011;23621;50.878;4.584;2023-07-24T01:08:09;9.98;;;5.15;;
37781;SDS011;23621;50.878;4.584;2023-07-24T01:10:57;9.52;;;5.18;;
37781;SDS011;23621;50.878;4.584;2023-07-24T01:14:04;11.05;;;4.93;;
37781;SDS011;23621;50.878;4.584;2023-07-24T01:17:07;8.75;;;5.00;;
37781;SDS011;23621;50.878;4.584;2023-07-24T01:19:56;8.20;;;4.75;;
37781;SDS011;23621;50.878;4.584;2023-07-24T01:22:48;12.05;;;5.47;;
37781;SDS011;23621;50.878;4.584;2023-07-24T01:26:01;8.18;;;5.30;;
37781;SDS011;23621;50.878;4.584;2023-07-24T01:28:49;7.80;;;5.18;;
37781;SDS011;23621;50.878;4.584;2023-07-24T01:31:36;10.77;;;5.05;;
37781;SDS011;23621;50.878;4.584;2023-07-24T01:34:23;9.95;;;5.28;;
37781;SDS011;23621;50.878;4.584;2023-07-24T01:37:11;7.80;;;5.18;;
37781;SDS011;23621;50.878;4.584;2023-07-24T01:39:59;8.90;;;5.53;;
37781;SDS011;23621;50.878;4.584;2023-07-24T01:42:47;14.38;;;5.70;;
37781;SDS011;23621;50.878;4.584;2023-07-24T01:45:36;7.68;;;5.50;;
37781;SDS011;23621;50.878;4.584;2023-07-24T01:48:23;8.82;;;5.07;;
37781;SDS011;23621;50.878;4.584;2023-07-24T01:51:10;9.77;;;5.72;;
37781;SDS011;23621;50.878;4.584;2023-07-24T01:53:58;8.48;;;5.50;;
37781;SDS011;23621;50.878;4.584;2023-07-24T01:56:45;6.88;;;4.70;;
37781;SDS011;23621;50.878;4.584;2023-07-24T01:59:32;7.72;;;4.65;;
37781;SDS011;23621;50.878;4.584;2023-07-24T02:02:19;6.32;;;4.85;;
37781;SDS011;23621;50.878;4.584;2023-07-24T02:05:06;6.68;;;4.90;;
37781;SDS011;23621;50.878;4.584;2023-07-24T02:07:54;7.38;;;5.50;;
37781;SDS011;23621;50.878;4.584;2023-07-24T02:10:41;6.35;;;4.65;;
37781;SDS011;23621;50.878;4.584;2023-07-24T02:13:28;6.85;;;4.65;;
37781;SDS011;23621;50.878;4.584;2023-07-24T02:16:15;7.80;;;4.55;;
37781;SDS011;23621;50.878;4.584;2023-07-24T02:19:02;6.60;;;4.30;;
37781;SDS011;23621;50.878;4.584;2023-07-24T02:21:50;7.90;;;4.68;;
37781;SDS011;23621;50.878;4.584;2023-07-24T02:24:37;7.82;;;4.80;;
37781;SDS011;23621;50.878;4.584;2023-07-24T02:27:28;6.72;;;4.30;;
37781;SDS011;23621;50.878;4.584;2023-07-24T02:30:17;6.07;;;4.50;;
37781;SDS011;23621;50.878;4.584;2023-07-24T02:33:05;4.82;;;4.13;;
37781;SDS011;23621;50.878;4.584;2023-07-24T02:35:52;5.85;;;4.22;;
37781;SDS011;23621;50.878;4.584;2023-07-24T02:38:39;6.03;;;4.60;;
37781;SDS011;23621;50.878;4.584;2023-07-24T02:41:27;5.43;;;4.55;;
37781;SDS011;23621;50.878;4.584;2023-07-24T02:44:14;8.20;;;4.53;;
37781;SDS011;23621;50.878;4.584;2023-07-24T02:47:01;6.35;;;4.03;;
37781;SDS011;23621;50.878;4.584;2023-07-24T02:49:48;5.32;;;3.97;;
37781;SDS011;23621;50.878;4.584;2023-07-24T02:52:36;7.22;;;4.18;;
37781;SDS011;23621;50.878;4.584;2023-07-24T02:55:23;5.80;;;4.22;;
37781;SDS011;23621;50.878;4.584;2023-07-24T02:58:13;3.90;;;3.50;;
37781;SDS011;23621;50.878;4.584;2023-07-24T03:01:04;6.65;;;3.83;;
37781;SDS011;23621;50.878;4.584;2023-07-24T03:03:53;6.30;;;3.63;;
37781;SDS011;23621;50.878;4.584;2023-07-24T03:06:40;5.97;;;4.03;;
37781;SDS011;23621;50.878;4.584;2023-07-24T03:09:27;3.75;;;3.38;;
37781;SDS011;23621;50.878;4.584;2023-07-24T03:12:14;4.18;;;3.42;;
37781;SDS011;23621;50.878;4.584;2023-07-24T03:15:02;4.18;;;3.47;;
37781;SDS011;23621;50.878;4.584;2023-07-24T03:17:49;6.78;;;3.45;;
37781;SDS011;23621;50.878;4.584;2023-07-24T03:20:36;3.83;;;2.20;;
37781;SDS011;23621;50.878;4.584;2023-07-24T03:23:24;2.15;;;1.90;;
37781;SDS011;23621;50.878;4.584;2023-07-24T03:26:11;2.33;;;2.10;;
37781;SDS011;23621;50.878;4.584;2023-07-24T03:28:59;1.92;;;1.63;;
37781;SDS011;23621;50.878;4.584;2023-07-24T03:31:46;2.13;;;1.65;;
37781;SDS011;23621;50.878;4.584;2023-07-24T03:34:34;1.75;;;1.50;;
37781;SDS011;23621;50.878;4.584;2023-07-24T03:37:21;1.73;;;1.63;;
37781;SDS011;23621;50.878;4.584;2023-07-24T03:40:08;1.70;;;1.60;;
37781;SDS011;23621;50.878;4.584;2023-07-24T03:42:55;1.60;;;1.50;;
37781;SDS011;23621;50.878;4.584;2023-07-24T03:45:43;1.40;;;1.30;;
37781;SDS011;23621;50.878;4.584;2023-07-24T03:48:31;1.73;;;1.50;;
37781;SDS011;23621;50.878;4.584;2023-07-24T03:51:18;1.70;;;1.60;;
37781;SDS011;23621;50.878;4.584;2023-07-24T03:54:05;1.52;;;1.42;;
37781;SDS011;23621;50.878;4.584;2023-07-24T03:56:53;1.70;;;1.60;;
37781;SDS011;23621;50.878;4.584;2023-07-24T03:59:40;1.92;;;1.83;;
37781;SDS011;23621;50.878;4.584;2023-07-24T04:02:27;1.80;;;1.70;;
37781;SDS011;23621;50.878;4.584;2023-07-24T04:05:14;1.63;;;1.52;;
37781;SDS011;23621;50.878;4.584;2023-07-24T04:08:02;1.70;;;1.60;;
37781;SDS011;23621;50.878;4.584;2023-07-24T04:10:49;1.75;;;1.45;;
37781;SDS011;23621;50.878;4.584;2023-07-24T04:13:36;2.08;;;1.80;;
37781;SDS011;23621;50.878;4.584;2023-07-24T04:16:23;1.70;;;1.60;;
37781;SDS011;23621;50.878;4.584;2023-07-24T04:19:15;2.42;;;1.67;;
37781;SDS011;23621;50.878;4.584;2023-07-24T04:22:02;2.33;;;1.88;;
37781;SDS011;23621;50.878;4.584;2023-07-24T04:24:49;1.70;;;1.60;;
37781;SDS011;23621;50.878;4.584;2023-07-24T04:27:36;1.60;;;1.50;;
37781;SDS011;23621;50.878;4.584;2023-07-24T04:30:24;2.97;;;1.80;;
37781;SDS011;23621;50.878;4.584;2023-07-24T04:33:11;1.70;;;1.60;;
37781;SDS011;23621;50.878;4.584;2023-07-24T04:35:58;3.28;;;2.00;;
37781;SDS011;23621;50.878;4.584;2023-07-24T04:38:45;3.03;;;1.80;;
37781;SDS011;23621;50.878;4.584;2023-07-24T04:41:33;3.53;;;1.83;;
37781;SDS011;23621;50.878;4.584;2023-07-24T04:44:20;2.42;;;1.63;;
37781;SDS011;23621;50.878;4.584;2023-07-24T04:47:08;1.75;;;1.65;;
37781;SDS011;23621;50.878;4.584;2023-07-24T04:49:55;2.47;;;1.80;;
37781;SDS011;23621;50.878;4.584;2023-07-24T04:52:42;2.05;;;1.73;;
37781;SDS011;23621;50.878;4.584;2023-07-24T04:55:29;1.80;;;1.70;;
37781;SDS011;23621;50.878;4.584;2023-07-24T04:58:16;1.58;;;1.48;;
37781;SDS011;23621;50.878;4.584;2023-07-24T05:01:04;1.92;;;1.73;;
37781;SDS011;23621;50.878;4.584;2023-07-24T05:03:51;2.20;;;1.52;;
37781;SDS011;23621;50.878;4.584;2023-07-24T05:06:38;2.65;;;1.80;;
37781;SDS011;23621;50.878;4.584;2023-07-24T05:09:25;2.35;;;1.67;;
37781;SDS011;23621;50.878;4.584;2023-07-24T05:12:13;2.35;;;1.88;;
37781;SDS011;23621;50.878;4.584;2023-07-24T05:15:00;2.20;;;1.55;;
37781;SDS011;23621;50.878;4.584;2023-07-24T05:17:47;1.92;;;1.83;;
37781;SDS011;23621;50.878;4.584;2023-07-24T05:20:34;1.50;;;1.40;;
37781;SDS011;23621;50.878;4.584;2023-07-24T05:23:21;3.28;;;1.60;;
37781;SDS011;23621;50.878;4.584;2023-07-24T05:26:09;1.80;;;1.70;;
37781;SDS011;23621;50.878;4.584;2023-07-24T05:28:56;2.33;;;1.60;;
37781;SDS011;23621;50.878;4.584;2023-07-24T05:31:43;2.55;;;1.77;;
37781;SDS011;23621;50.878;4.584;2023-07-24T05:34:30;1.98;;;1.88;;
37781;SDS011;23621;50.878;4.584;2023-07-24T05:37:18;2.28;;;2.08;;
37781;SDS011;23621;50.878;4.584;2023-07-24T05:40:05;2.03;;;1.88;;
37781;SDS011;23621;50.878;4.584;2023-07-24T05:42:53;2.28;;;2.08;;
37781;SDS011;23621;50.878;4.584;2023-07-24T05:45:40;3.30;;;2.55;;
37781;SDS011;23621;50.878;4.584;2023-07-24T05:48:27;2.15;;;2.00;;
37781;SDS011;23621;50.878;4.584;2023-07-24T05:51:14;2.03;;;1.92;;
37781;SDS011;23621;50.878;4.584;2023-07-24T05:54:02;2.45;;;2.22;;
37781;SDS011;23621;50.878;4.584;2023-07-24T05:56:49;2.30;;;2.10;;
37781;SDS011;23621;50.878;4.584;2023-07-24T05:59:38;2.72;;;2.35;;
37781;SDS011;23621;50.878;4.584;2023-07-24T06:02:25;3.95;;;2.28;;
37781;SDS011;23621;50.878;4.584;2023-07-24T06:05:12;2.08;;;1.98;;
37781;SDS011;23621;50.878;4.584;2023-07-24T06:07:59;2.30;;;2.10;;
37781;SDS011;23621;50.878;4.584;2023-07-24T06:10:47;2.38;;;2.10;;
37781;SDS011;23621;50.878;4.584;2023-07-24T06:13:35;2.25;;;2.05;;
37781;SDS011;23621;50.878;4.584;2023-07-24T06:16:23;4.07;;;2.45;;
37781;SDS011;23621;50.878;4.584;2023-07-24T06:19:10;3.20;;;2.22;;
37781;SDS011;23621;50.878;4.584;2023-07-24T06:21:57;2.75;;;2.45;;
37781;SDS011;23621;50.878;4.584;2023-07-24T06:24:44;2.85;;;2.50;;
37781;SDS011;23621;50.878;4.584;2023-07-24T06:27:31;2.35;;;2.15;;
37781;SDS011;23621;50.878;4.584;2023-07-24T06:30:19;2.60;;;2.40;;
37781;SDS011;23621;50.878;4.584;2023-07-24T06:33:06;2.67;;;2.33;;
37781;SDS011;23621;50.878;4.584;2023-07-24T06:35:53;2.40;;;2.20;;
37781;SDS011;23621;50.878;4.584;2023-07-24T06:38:40;2.72;;;2.50;;
37781;SDS011;23621;50.878;4.584;2023-07-24T06:41:29;2.70;;;2.50;;
37781;SDS011;23621;50.878;4.584;2023-07-24T06:44:16;3.03;;;2.72;;
37781;SDS011;23621;50.878;4.584;2023-07-24T06:47:03;2.80;;;2.50;;
37781;SDS011;23621;50.878;4.584;2023-07-24T06:49:50;2.97;;;2.60;;
37781;SDS011;23621;50.878;4.584;2023-07-24T06:52:37;3.05;;;2.33;;
37781;SDS011;23621;50.878;4.584;2023-07-24T06:55:25;3.40;;;2.70;;
37781;SDS011;23621;50.878;4.584;2023-07-24T06:58:12;4.57;;;2.67;;
37781;SDS011;23621;50.878;4.584;2023-07-24T07:00:59;2.83;;;2.60;;
37781;SDS011;23621;50.878;4.584;2023-07-24T07:03:46;2.72;;;2.50;;
37781;SDS011;23621;50.878;4.584;2023-07-24T07:06:34;3.83;;;2.40;;
37781;SDS011;23621;50.878;4.584;2023-07-24T07:09:23;2.80;;;2.60;;
37781;SDS011;23621;50.878;4.584;2023-07-24T07:12:11;3.53;;;2.65;;
37781;SDS011;23621;50.878;4.584;2023-07-24T07:14:58;2.60;;;2.38;;
37781;SDS011;23621;50.878;4.584;2023-07-24T07:17:45;2.72;;;2.53;;
37781;SDS011;23621;50.878;4.584;2023-07-24T07:20:32;2.92;;;2.60;;
37781;SDS011;23621;50.878;4.584;2023-07-24T07:23:20;2.70;;;2.45;;
37781;SDS011;23621;50.878;4.584;2023-07-24T07:26:07;3.45;;;2.55;;
37781;SDS011;23621;50.878;4.584;2023-07-24T07:28:55;2.83;;;2.40;;
37781;SDS011;23621;50.878;4.584;2023-07-24T07:31:42;4.40;;;2.67;;
37781;SDS011;23621;50.878;4.584;2023-07-24T07:34:29;2.97;;;2.53;;
37781;SDS011;23621;50.878;4.584;2023-07-24T07:37:16;2.50;;;2.30;;
37781;SDS011;23621;50.878;4.584;2023-07-24T07:40:03;2.65;;;2.13;;
37781;SDS011;23621;50.878;4.584;2023-07-24T07:42:51;2.50;;;2.30;;
37781;SDS011;23621;50.878;4.584;2023-07-24T07:45:42;2.63;;;2.28;;
37781;SDS011;23621;50.878;4.584;2023-07-24T07:48:29;5.90;;;2.58;;
37781;SDS011;23621;50.878;4.584;2023-07-24T07:51:16;4.07;;;2.78;;
37781;SDS011;23621;50.878;4.584;2023-07-24T07:54:03;4.90;;;2.50;;
37781;SDS011;23621;50.878;4.584;2023-07-24T07:56:51;3.30;;;2.72;;
37781;SDS011;23621;50.878;4.584;2023-07-24T07:59:39;4.30;;;2.80;;
37781;SDS011;23621;50.878;4.584;2023-07-24T08:02:26;5.10;;;2.53;;
37781;SDS011;23621;50.878;4.584;2023-07-24T08:05:14;3.58;;;2.58;;
37781;SDS011;23621;50.878;4.584;2023-07-24T08:08:07;2.58;;;2.38;;
37781;SDS011;23621;50.878;4.584;2023-07-24T08:10:54;3.45;;;2.72;;
37781;SDS011;23621;50.878;4.584;2023-07-24T08:13:41;4.13;;;2.50;;
37781;SDS011;23621;50.878;4.584;2023-07-24T08:16:28;3.00;;;2.60;;
37781;SDS011;23621;50.878;4.584;2023-07-24T08:19:16;4.97;;;2.58;;
37781;SDS011;23621;50.878;4.584;2023-07-24T08:22:03;2.88;;;2.42;;
37781;SDS011;23621;50.878;4.584;2023-07-24T08:24:52;4.30;;;2.50;;
37781;SDS011;23621;50.878;4.584;2023-07-24T08:27:42;2.50;;;2.30;;
37781;SDS011;23621;50.878;4.584;2023-07-24T08:30:56;4.28;;;2.40;;
37781;SDS011;23621;50.878;4.584;2023-07-24T08:33:44;3.85;;;2.58;;
37781;SDS011;23621;50.878;4.584;2023-07-24T08:36:31;4.25;;;2.40;;
37781;SDS011;23621;50.878;4.584;2023-07-24T08:39:19;2.80;;;2.60;;
37781;SDS011;23621;50.878;4.584;2023-07-24T08:42:12;3.17;;;2.88;;
37781;SDS011;23621;50.878;4.584;2023-07-24T08:45:00;8.50;;;7.70;;
37781;SDS011;23621;50.878;4.584;2023-07-24T08:47:48;5.65;;;5.15;;
37781;SDS011;23621;50.878;4.584;2023-07-24T08:50:36;3.25;;;2.95;;
37781;SDS011;23621;50.878;4.584;2023-07-24T08:53:23;5.47;;;4.97;;
37781;SDS011;23621;50.878;4.584;2023-07-24T08:56:11;5.88;;;5.32;;
37781;SDS011;23621;50.878;4.584;2023-07-24T08:58:59;3.40;;;3.10;;
37781;SDS011;23621;50.878;4.584;2023-07-24T09:01:46;6.30;;;5.60;;
37781;SDS011;23621;50.878;4.584;2023-07-24T09:04:33;8.18;;;7.47;;
37781;SDS011;23621;50.878;4.584;2023-07-24T09:07:22;9.30;;;8.40;;
37781;SDS011;23621;50.878;4.584;2023-07-24T09:10:09;6.75;;;6.15;;
37781;SDS011;23621;50.878;4.584;2023-07-24T09:12:57;6.05;;;5.55;;
37781;SDS011;23621;50.878;4.584;2023-07-24T09:15:45;5.78;;;5.18;;
37781;SDS011;23621;50.878;4.584;2023-07-24T09:18:39;5.22;;;3.55;;
37781;SDS011;23621;50.878;4.584;2023-07-24T09:21:31;3.83;;;3.13;;
37781;SDS011;23621;50.878;4.584;2023-07-24T09:24:19;4.28;;;3.58;;
37781;SDS011;23621;50.878;4.584;2023-07-24T09:27:06;3.85;;;3.30;;
37781;SDS011;23621;50.878;4.584;2023-07-24T09:29:56;4.07;;;3.67;;
37781;SDS011;23621;50.878;4.584;2023-07-24T09:32:51;4.55;;;3.90;;
37781;SDS011;23621;50.878;4.584;2023-07-24T09:35:41;3.38;;;3.08;;
37781;SDS011;23621;50.878;4.584;2023-07-24T09:38:28;3.70;;;3.20;;
37781;SDS011;23621;50.878;4.584;2023-07-24T09:41:26;6.60;;;3.45;;
37781;SDS011;23621;50.878;4.584;2023-07-24T09:44:14;4.15;;;3.15;;
37781;SDS011;23621;50.878;4.584;2023-07-24T09:47:01;3.75;;;3.17;;
37781;SDS011;23621;50.878;4.584;2023-07-24T09:50:09;3.85;;;3.53;;
37781;SDS011;23621;50.878;4.584;2023-07-24T09:52:56;5.25;;;3.17;;
37781;SDS011;23621;50.878;4.584;2023-07-24T09:58:42;4.80;;;3.58;;
37781;SDS011;23621;50.878;4.584;2023-07-24T10:01:31;4.00;;;3.33;;
37781;SDS011;23621;50.878;4.584;2023-07-24T10:04:20;3.47;;;3.17;;
37781;SDS011;23621;50.878;4.584;2023-07-24T10:07:08;3.35;;;2.95;;
37781;SDS011;23621;50.878;4.584;2023-07-24T10:09:56;5.00;;;3.13;;
37781;SDS011;23621;50.878;4.584;2023-07-24T10:12:44;3.60;;;3.30;;
37781;SDS011;23621;50.878;4.584;2023-07-24T10:15:31;5.57;;;3.42;;
37781;SDS011;23621;50.878;4.584;2023-07-24T10:18:26;3.53;;;3.22;;
37781;SDS011;23621;50.878;4.584;2023-07-24T10:21:14;4.82;;;3.00;;
37781;SDS011;23621;50.878;4.584;2023-07-24T10:24:01;3.83;;;3.03;;
37781;SDS011;23621;50.878;4.584;2023-07-24T10:26:48;3.42;;;3.13;;
37781;SDS011;23621;50.878;4.584;2023-07-24T10:29:36;3.65;;;3.20;;
37781;SDS011;23621;50.878;4.584;2023-07-24T10:32:23;2.85;;;2.65;;
37781;SDS011;23621;50.878;4.584;2023-07-24T10:35:11;3.15;;;2.80;;
37781;SDS011;23621;50.878;4.584;2023-07-24T10:37:59;2.97;;;2.70;;
37781;SDS011;23621;50.878;4.584;2023-07-24T10:40:47;2.60;;;2.40;;
37781;SDS011;23621;50.878;4.584;2023-07-24T10:46:35;2.83;;;2.63;;
37781;SDS011;23621;50.878;4.584;2023-07-24T10:49:24;2.72;;;2.50;;
37781;SDS011;23621;50.878;4.584;2023-07-24T10:52:11;3.00;;;2.50;;
37781;SDS011;23621;50.878;4.584;2023-07-24T10:55:02;2.92;;;2.63;;
37781;SDS011;23621;50.878;4.584;2023-07-24T10:57:52;3.25;;;2.70;;
37781;SDS011;23621;50.878;4.584;2023-07-24T11:00:40;3.40;;;2.83;;
37781;SDS011;23621;50.878;4.584;2023-07-24T11:03:28;2.78;;;2.58;;
37781;SDS011;23621;50.878;4.584;2023-07-24T11:06:16;2.60;;;2.40;;
37781;SDS011;23621;50.878;4.584;2023-07-24T11:09:05;2.92;;;2.50;;
37781;SDS011;23621;50.878;4.584;2023-07-24T11:11:52;2.92;;;2.55;;
37781;SDS011;23621;50.878;4.584;2023-07-24T11:14:57;2.70;;;2.50;;
37781;SDS011;23621;50.878;4.584;2023-07-24T11:17:46;3.08;;;2.40;;
37781;SDS011;23621;50.878;4.584;2023-07-24T11:23:31;3.30;;;3.00;;
37781;SDS011;23621;50.878;4.584;2023-07-24T11:26:22;3.28;;;2.95;;
37781;SDS011;23621;50.878;4.584;2023-07-24T11:29:11;3.95;;;2.92;;
37781;SDS011;23621;50.878;4.584;2023-07-24T11:31:59;3.40;;;3.10;;
37781;SDS011;23621;50.878;4.584;2023-07-24T11:34:47;3.85;;;2.90;;
37781;SDS011;23621;50.878;4.584;2023-07-24T11:37:35;3.33;;;2.78;;
37781;SDS011;23621;50.878;4.584;2023-07-24T11:43:20;3.05;;;2.78;;
37781;SDS011;23621;50.878;4.584;2023-07-24T11:46:10;3.28;;;2.97;;
37781;SDS011;23621;50.878;4.584;2023-07-24T11:48:57;3.30;;;3.00;;
37781;SDS011;23621;50.878;4.584;2023-07-24T11:51:45;3.50;;;3.20;;
37781;SDS011;23621;50.878;4.584;2023-07-24T11:54:33;4.00;;;3.00;;
37781;SDS011;23621;50.878;4.584;2023-07-24T11:57:22;3.13;;;2.67;;
37781;SDS011;23621;50.878;4.584;2023-07-24T12:00:21;4.28;;;3.20;;
37781;SDS011;23621;50.878;4.584;2023-07-24T12:03:09;3.42;;;3.13;;
37781;SDS011;23621;50.878;4.584;2023-07-24T12:05:56;3.53;;;3.22;;
37781;SDS011;23621;50.878;4.584;2023-07-24T12:08:44;3.45;;;3.15;;
37781;SDS011;23621;50.878;4.584;2023-07-24T12:11:31;3.40;;;3.08;;
37781;SDS011;23621;50.878;4.584;2023-07-24T12:14:19;3.40;;;3.10;;
37781;SDS011;23621;50.878;4.584;2023-07-24T12:17:06;3.67;;;3.10;;
37781;SDS011;23621;50.878;4.584;2023-07-24T12:19:56;3.63;;;3.20;;
37781;SDS011;23621;50.878;4.584;2023-07-24T12:22:43;5.13;;;3.45;;
37781;SDS011;23621;50.878;4.584;2023-07-24T12:25:31;4.45;;;4.05;;
37781;SDS011;23621;50.878;4.584;2023-07-24T12:28:18;3.90;;;3.60;;
37781;SDS011;23621;50.878;4.584;2023-07-24T12:31:05;3.90;;;3.60;;
37781;SDS011;23621;50.878;4.584;2023-07-24T12:33:53;4.10;;;3.70;;
37781;SDS011;23621;50.878;4.584;2023-07-24T12:36:40;6.55;;;4.13;;
37781;SDS011;23621;50.878;4.584;2023-07-24T12:39:27;4.55;;;4.10;;
37781;SDS011;23621;50.878;4.584;2023-07-24T12:42:15;4.00;;;3.70;;
37781;SDS011;23621;50.878;4.584;2023-07-24T12:45:02;4.65;;;4.25;;
37781;SDS011;23621;50.878;4.584;2023-07-24T12:47:50;4.28;;;3.72;;
37781;SDS011;23621;50.878;4.584;2023-07-24T12:50:37;4.82;;;3.70;;
37781;SDS011;23621;50.878;4.584;2023-07-24T12:53:24;3.72;;;3.40;;
37781;SDS011;23621;50.878;4.584;2023-07-24T12:56:17;3.97;;;3.22;;
37781;SDS011;23621;50.878;4.584;2023-07-24T12:59:05;4.10;;;3.47;;
37781;SDS011;23621;50.878;4.584;2023-07-24T13:01:52;4.10;;;3.70;;
37781;SDS011;23621;50.878;4.584;2023-07-24T13:04:39;4.13;;;3.72;;
37781;SDS011;23621;50.878;4.584;2023-07-24T13:07:26;4.00;;;3.20;;
37781;SDS011;23621;50.878;4.584;2023-07-24T13:10:15;3.58;;;3.28;;
37781;SDS011;23621;50.878;4.584;2023-07-24T13:13:02;3.33;;;3.03;;
37781;SDS011;23621;50.878;4.584;2023-07-24T13:15:49;3.08;;;2.72;;
37781;SDS011;23621;50.878;4.584;2023-07-24T13:18:37;3.60;;;3.22;;
37781;SDS011;23621;50.878;4.584;2023-07-24T13:21:24;3.63;;;3.28;;
37781;SDS011;23621;50.878;4.584;2023-07-24T13:24:11;4.72;;;3.28;;
37781;SDS011;23621;50.878;4.584;2023-07-24T13:26:59;3.65;;;3.33;;
37781;SDS011;23621;50.878;4.584;2023-07-24T13:29:46;4.15;;;3.53;;
37781;SDS011;23621;50.878;4.584;2023-07-24T13:32:33;3.92;;;2.97;;
37781;SDS011;23621;50.878;4.584;2023-07-24T13:35:20;3.45;;;2.60;;
37781;SDS011;23621;50.878;4.584;2023-07-24T13:38:08;6.28;;;3.10;;
37781;SDS011;23621;50.878;4.584;2023-07-24T13:40:55;3.92;;;3.20;;
37781;SDS011;23621;50.878;4.584;2023-07-24T13:43:42;5.05;;;3.30;;
37781;SDS011;23621;50.878;4.584;2023-07-24T13:46:29;4.53;;;4.00;;
37781;SDS011;23621;50.878;4.584;2023-07-24T13:49:17;5.47;;;3.28;;
37781;SDS011;23621;50.878;4.584;2023-07-24T13:52:04;4.68;;;3.40;;
37781;SDS011;23621;50.878;4.584;2023-07-24T13:54:52;5.05;;;3.22;;
37781;SDS011;23621;50.878;4.584;2023-07-24T13:57:39;5.78;;;3.05;;
37781;SDS011;23621;50.878;4.584;2023-07-24T14:00:26;4.47;;;3.20;;
37781;SDS011;23621;50.878;4.584;2023-07-24T14:03:13;4.35;;;3.50;;
37781;SDS011;23621;50.878;4.584;2023-07-24T14:06:01;3.28;;;2.97;;
37781;SDS011;23621;50.878;4.584;2023-07-24T14:08:48;3.35;;;2.85;;
37781;SDS011;23621;50.878;4.584;2023-07-24T14:11:35;4.82;;;2.97;;
37781;SDS011;23621;50.878;4.584;2023-07-24T14:14:22;3.08;;;2.50;;
37781;SDS011;23621;50.878;4.584;2023-07-24T14:17:12;2.78;;;2.53;;
37781;SDS011;23621;50.878;4.584;2023-07-24T14:20:02;2.60;;;2.40;;
37781;SDS011;23621;50.878;4.584;2023-07-24T14:22:49;3.20;;;2.47;;
37781;SDS011;23621;50.878;4.584;2023-07-24T14:25:37;3.55;;;2.80;;
37781;SDS011;23621;50.878;4.584;2023-07-24T14:28:24;4.25;;;2.70;;
37781;SDS011;23621;50.878;4.584;2023-07-24T14:31:11;3.72;;;2.63;;
37781;SDS011;23621;50.878;4.584;2023-07-24T14:33:58;3.97;;;2.45;;
37781;SDS011;23621;50.878;4.584;2023-07-24T14:36:45;3.35;;;2.78;;
37781;SDS011;23621;50.878;4.584;2023-07-24T14:39:32;3.05;;;2.55;;
37781;SDS011;23621;50.878;4.584;2023-07-24T14:42:20;3.15;;;2.80;;
37781;SDS011;23621;50.878;4.584;2023-07-24T14:45:07;3.10;;;2.80;;
37781;SDS011;23621;50.878;4.584;2023-07-24T14:47:55;3.25;;;2.63;;
37781;SDS011;23621;50.878;4.584;2023-07-24T14:50:42;3.17;;;2.88;;
37781;SDS011;23621;50.878;4.584;2023-07-24T14:53:29;3.30;;;3.00;;
37781;SDS011;23621;50.878;4.584;2023-07-24T14:56:17;3.58;;;2.72;;
37781;SDS011;23621;50.878;4.584;2023-07-24T14:59:04;3.22;;;2.65;;
37781;SDS011;23621;50.878;4.584;2023-07-24T15:01:51;3.33;;;2.40;;
37781;SDS011;23621;50.878;4.584;2023-07-24T15:04:38;2.70;;;2.50;;
37781;SDS011;23621;50.878;4.584;2023-07-24T15:07:25;2.85;;;2.65;;
37781;SDS011;23621;50.878;4.584;2023-07-24T15:10:14;3.63;;;2.60;;
37781;SDS011;23621;50.878;4.584;2023-07-24T15:13:01;3.03;;;2.70;;
37781;SDS011;23621;50.878;4.584;2023-07-24T15:15:48;3.08;;;2.60;;
37781;SDS011;23621;50.878;4.584;2023-07-24T15:18:36;3.22;;;2.60;;
37781;SDS011;23621;50.878;4.584;2023-07-24T15:21:23;2.95;;;2.58;;
37781;SDS011;23621;50.878;4.584;2023-07-24T15:24:10;3.22;;;2.90;;
37781;SDS011;23621;50.878;4.584;2023-07-24T15:26:57;3.40;;;2.88;;
37781;SDS011;23621;50.878;4.584;2023-07-24T15:29:44;4.05;;;3.45;;
37781;SDS011;23621;50.878;4.584;2023-07-24T15:32:33;4.68;;;3.08;;
37781;SDS011;23621;50.878;4.584;2023-07-24T15:35:20;3.58;;;3.25;;
37781;SDS011;23621;50.878;4.584;2023-07-24T15:38:07;4.78;;;3.55;;
37781;SDS011;23621;50.878;4.584;2023-07-24T15:40:55;4.50;;;3.85;;
37781;SDS011;23621;50.878;4.584;2023-07-24T15:43:42;3.75;;;3.35;;
37781;SDS011;23621;50.878;4.584;2023-07-24T15:46:29;3.45;;;3.15;;
37781;SDS011;23621;50.878;4.584;2023-07-24T15:49:18;4.38;;;3.28;;
37781;SDS011;23621;50.878;4.584;2023-07-24T15:52:06;5.75;;;3.50;;
37781;SDS011;23621;50.878;4.584;2023-07-24T15:54:53;3.95;;;3.53;;
37781;SDS011;23621;50.878;4.584;2023-07-24T15:57:41;6.03;;;3.72;;
37781;SDS011;23621;50.878;4.584;2023-07-24T16:00:28;3.72;;;3.42;;
37781;SDS011;23621;50.878;4.584;2023-07-24T16:03:15;5.05;;;3.53;;
37781;SDS011;23621;50.878;4.584;2023-07-24T16:06:03;4.63;;;3.50;;
37781;SDS011;23621;50.878;4.584;2023-07-24T16:08:50;5.20;;;3.30;;
37781;SDS011;23621;50.878;4.584;2023-07-24T16:11:37;3.45;;;3.15;;
37781;SDS011;23621;50.878;4.584;2023-07-24T16:14:25;3.83;;;3.17;;
37781;SDS011;23621;50.878;4.584;2023-07-24T16:17:12;4.22;;;3.28;;
37781;SDS011;23621;50.878;4.584;2023-07-24T16:19:59;3.78;;;3.47;;
37781;SDS011;23621;50.878;4.584;2023-07-24T16:22:46;4.15;;;3.72;;
37781;SDS011;23621;50.878;4.584;2023-07-24T16:25:33;4.68;;;3.92;;
37781;SDS011;23621;50.878;4.584;2023-07-24T16:28:21;5.45;;;3.80;;
37781;SDS011;23621;50.878;4.584;2023-07-24T16:31:09;6.18;;;4.30;;
37781;SDS011;23621;50.878;4.584;2023-07-24T16:33:56;5.32;;;4.10;;
37781;SDS011;23621;50.878;4.584;2023-07-24T16:36:45;6.07;;;4.10;;
37781;SDS011;23621;50.878;4.584;2023-07-24T16:39:32;5.03;;;4.20;;
37781;SDS011;23621;50.878;4.584;2023-07-24T16:42:20;7.63;;;4.82;;
37781;SDS011;23621;50.878;4.584;2023-07-24T16:45:07;6.15;;;4.22;;
37781;SDS011;23621;50.878;4.584;2023-07-24T16:48:13;4.82;;;4.30;;
37781;SDS011;23621;50.878;4.584;2023-07-24T16:51:01;5.18;;;4.45;;
37781;SDS011;23621;50.878;4.584;2023-07-24T16:53:48;6.10;;;4.70;;
37781;SDS011;23621;50.878;4.584;2023-07-24T16:56:35;5.22;;;4.38;;
37781;SDS011;23621;50.878;4.584;2023-07-24T16:59:22;5.18;;;4.28;;
37781;SDS011;23621;50.878;4.584;2023-07-24T17:02:09;6.13;;;4.57;;
37781;SDS011;23621;50.878;4.584;2023-07-24T17:04:57;6.85;;;4.80;;